M I D A S
Marine Information and Data Acquisition System
Tripno 1010 of the Zeeleeuw from 2005-01-17 08:11:22 to 2005-01-17 12:48:56
Back to CruiseResearch ActivitiesStationsMapUnderway DataData graphs

EquipmentUnitsComments
TimeDGPSUTC
LatitudeDGPSDM.mWGS84
LongitudeDGPSDM.mWGS84
SpeedMeteo Stationm/sRelative wind speed
DirectionMeteo StationdegRelative wind direction
TemperatureMeteo Stationdeg CelciusAir temperature
PressureMeteo StationPaAtmospheric pressure
HumidityMeteo Station%Relative humidity
Missing or incorrect values are displayed as -999
Metereological data collected by the RV Zeeleeuw from 2005-01-17 08:11:22 to 2005-01-17 12:48:56
                                                                                    Next 1000 lines
Time Latitude Longitude Speed Direction Temperature Pressure Humidity
2005-01-17 08:11:30 51°13.596 2°56.1 7.5 82 6.4 101860 100
2005-01-17 08:11:36 51°13.596 2°56.1 7.4 70 6.4 101860 100
2005-01-17 08:11:41 51°13.596 2°56.101 8.8 85 6.4 101860 100
2005-01-17 08:11:45 51°13.596 2°56.101 9.3 84 6.4 101860 100
2005-01-17 08:11:51 51°13.596 2°56.101 9.9 90 6.4 101860 100
2005-01-17 08:11:56 51°13.596 2°56.102 8.4 86 6.4 101860 100
2005-01-17 08:12:01 51°13.596 2°56.102 6.4 68 6.4 101860 100
2005-01-17 08:12:06 51°13.596 2°56.102 4.6 93 6.4 101860 100
2005-01-17 08:12:11 51°13.596 2°56.102 4.5 68 6.4 101860 100
2005-01-17 08:12:16 51°13.596 2°56.102 6.8 63 6.4 101850 100
2005-01-17 08:12:20 51°13.596 2°56.102 7.5 86 6.4 101850 100
2005-01-17 08:12:25 51°13.596 2°56.102 6.7 104 6.4 101860 100
2005-01-17 08:12:30 51°13.596 2°56.102 5.1 92 6.4 101860 100
2005-01-17 08:12:36 51°13.595 2°56.102 7.6 118 6.4 101860 100
2005-01-17 08:12:40 51°13.595 2°56.102 5.5 72 6.4 101860 100
2005-01-17 08:12:44 51°13.595 2°56.102 5 101 6.4 101860 100
2005-01-17 08:12:50 51°13.595 2°56.102 6.3 86 6.4 101860 100
2005-01-17 08:12:56 51°13.594 2°56.102 5.8 116 6.4 101860 100
2005-01-17 08:13:00 51°13.594 2°56.102 4.8 95 6.4 101860 100
2005-01-17 08:13:06 51°13.594 2°56.102 4.4 105 6.4 101860 100
2005-01-17 08:13:11 51°13.594 2°56.102 6.1 123 6.4 101860 100
2005-01-17 08:13:16 51°13.594 2°56.102 4.4 72 6.4 101860 100
2005-01-17 08:13:20 51°13.594 2°56.101 8.3 100 6.4 101860 100
2005-01-17 08:13:26 51°13.595 2°56.099 7.6 93 6.4 101860 100
2005-01-17 08:13:31 51°13.595 2°56.096 5.6 92 6.4 101860 100
2005-01-17 08:13:36 51°13.596 2°56.093 4.7 96 6.4 101860 100
2005-01-17 08:13:41 51°13.597 2°56.089 4.9 135 6.4 101860 100
2005-01-17 08:13:46 51°13.598 2°56.085 4.1 121 6.4 101860 100
2005-01-17 08:13:52 51°13.6 2°56.079 6.8 127 6.4 101860 100
2005-01-17 08:13:57 51°13.602 2°56.074 6.1 132 6.5 101850 100
2005-01-17 08:14:02 51°13.604 2°56.068 6.5 133 6.5 101850 100
2005-01-17 08:14:06 51°13.605 2°56.063 4.7 80 6.5 101860 99
2005-01-17 08:14:12 51°13.608 2°56.055 4.9 108 6.5 101860 99
2005-01-17 08:14:17 51°13.61 2°56.048 4.7 44 6.5 101860 99
2005-01-17 08:14:22 51°13.612 2°56.041 4 94 6.5 101860 99
2005-01-17 08:14:26 51°13.614 2°56.035 3.4 114 6.5 101860 99
2005-01-17 08:14:32 51°13.616 2°56.026 3.4 101 6.5 101860 99
2005-01-17 08:14:37 51°13.618 2°56.019 3.5 98 6.5 101860 99
2005-01-17 08:14:42 51°13.619 2°56.011 3.8 90 6.5 101860 99
2005-01-17 08:14:46 51°13.621 2°56.005 4.2 66 6.5 101860 99
2005-01-17 08:14:52 51°13.624 2°55.995 4.3 108 6.5 101860 99
2005-01-17 08:14:56 51°13.626 2°55.989 6.8 96 6.5 101860 99
2005-01-17 08:15:02 51°13.629 2°55.978 5.2 101 6.5 101860 99
2005-01-17 08:15:06 51°13.631 2°55.971 4.4 94 6.5 101860 99
2005-01-17 08:15:12 51°13.635 2°55.96 3.8 113 6.5 101860 99
2005-01-17 08:15:17 51°13.637 2°55.951 3.8 126 6.5 101850 99
2005-01-17 08:15:22 51°13.64 2°55.941 4.4 152 6.5 101850 99
2005-01-17 08:15:26 51°13.642 2°55.934 3.8 116 6.5 101850 99
2005-01-17 08:15:32 51°13.645 2°55.922 5.5 118 6.5 101850 99
2005-01-17 08:15:37 51°13.648 2°55.912 4.3 109 6.5 101860 99
2005-01-17 08:15:42 51°13.651 2°55.902 2.9 147 6.5 101860 99
2005-01-17 08:15:46 51°13.653 2°55.894 3.6 119 6.5 101860 99
2005-01-17 08:15:52 51°13.657 2°55.882 2 136 6.5 101860 99
2005-01-17 08:15:57 51°13.66 2°55.872 2.1 173 6.5 101860 99
2005-01-17 08:16:02 51°13.663 2°55.861 3.5 167 6.5 101860 99
2005-01-17 08:16:06 51°13.666 2°55.853 3.8 134 6.5 101860 99
2005-01-17 08:16:12 51°13.67 2°55.84 5.5 161 6.5 101860 99
2005-01-17 08:16:17 51°13.673 2°55.83 4.5 129 6.4 101860 99
2005-01-17 08:16:21 51°13.675 2°55.822 4.6 139 6.4 101860 99
2005-01-17 08:16:26 51°13.678 2°55.812 5.3 141 6.5 101860 99
2005-01-17 08:16:32 51°13.681 2°55.8 5.9 115 6.5 101860 99
2005-01-17 08:16:36 51°13.683 2°55.793 5.6 125 6.5 101860 99
2005-01-17 08:16:42 51°13.686 2°55.782 6.4 131 6.5 101860 99
2005-01-17 08:16:46 51°13.688 2°55.775 6.7 111 6.5 101850 99
2005-01-17 08:16:52 51°13.69 2°55.765 4.9 138 6.5 101850 99
2005-01-17 08:16:56 51°13.691 2°55.759 5.3 133 6.5 101850 99
2005-01-17 08:17:01 51°13.693 2°55.752 4.7 127 6.5 101850 99
2005-01-17 08:17:06 51°13.694 2°55.748 3.2 136 6.5 101850 99
2005-01-17 08:17:09 51°13.694 2°55.746 3.2 137 6.5 101850 99
2005-01-17 08:17:16 51°13.695 2°55.744 4.2 119 6.5 101850 99
2005-01-17 08:17:20 51°13.695 2°55.744 3.6 129 6.5 101850 99
2005-01-17 08:17:25 51°13.696 2°55.744 3.5 137 6.5 101850 99
2005-01-17 08:17:29 51°13.697 2°55.744 3.9 138 6.5 101850 99
2005-01-17 08:17:36 51°13.699 2°55.747 3.2 137 6.4 101850 99
2005-01-17 08:17:41 51°13.7 2°55.749 5.2 132 6.4 101850 99
2005-01-17 08:17:46 51°13.703 2°55.752 4.8 144 6.4 101850 99
2005-01-17 08:17:51 51°13.705 2°55.754 3.5 178 6.4 101850 99
2005-01-17 08:17:56 51°13.708 2°55.756 3.6 160 6.5 101850 99
2005-01-17 08:18:01 51°13.709 2°55.757 5.9 150 6.5 101850 99
2005-01-17 08:18:06 51°13.71 2°55.758 5.6 153 6.4 101850 99
2005-01-17 08:18:10 51°13.711 2°55.758 5.1 158 6.4 101850 99
2005-01-17 08:18:16 51°13.712 2°55.757 5 196 6.5 101850 99
2005-01-17 08:18:21 51°13.712 2°55.757 5.8 169 6.5 101850 99
2005-01-17 08:18:26 51°13.711 2°55.756 4.1 177 6.4 101850 99
2005-01-17 08:18:32 51°13.71 2°55.755 4 178 6.4 101850 99
2005-01-17 08:18:36 51°13.71 2°55.754 4.4 162 6.5 101850 99
2005-01-17 08:18:40 51°13.709 2°55.753 3.3 165 6.5 101850 99
2005-01-17 08:18:46 51°13.707 2°55.752 4.1 166 6.5 101860 99
2005-01-17 08:18:52 51°13.707 2°55.751 3 157 6.5 101860 99
2005-01-17 08:18:56 51°13.708 2°55.751 3.2 163 6.5 101860 99
2005-01-17 08:19:02 51°13.709 2°55.75 2.1 207 6.5 101860 99
2005-01-17 08:19:06 51°13.71 2°55.75 1.9 225 6.5 101850 99
2005-01-17 08:19:12 51°13.713 2°55.749 4 254 6.5 101850 99
2005-01-17 08:19:16 51°13.714 2°55.748 3.8 218 6.5 101850 99
2005-01-17 08:19:20 51°13.716 2°55.747 2.6 241 6.5 101850 99
2005-01-17 08:19:26 51°13.72 2°55.745 1.8 255 6.5 101860 99
2005-01-17 08:19:30 51°13.722 2°55.742 5 226 6.5 101860 99
2005-01-17 08:19:36 51°13.727 2°55.738 3.7 210 6.5 101860 99
2005-01-17 08:19:40 51°13.731 2°55.734 5.3 215 6.5 101860 99
2005-01-17 08:19:46 51°13.737 2°55.728 4.5 229 6.5 101850 99
2005-01-17 08:19:50 51°13.742 2°55.723 5.8 230 6.5 101850 99
2005-01-17 08:19:56 51°13.749 2°55.715 5 217 6.5 101850 99
2005-01-17 08:20:01 51°13.756 2°55.709 4.7 239 6.5 101850 99
2005-01-17 08:20:06 51°13.763 2°55.701 2.6 235 6.5 101850 99
2005-01-17 08:20:11 51°13.771 2°55.694 1.9 240 6.5 101850 99
2005-01-17 08:20:16 51°13.779 2°55.686 1.3 292 6.5 101850 99
2005-01-17 08:20:21 51°13.787 2°55.678 2.3 297 6.5 101850 99
2005-01-17 08:20:24 51°13.792 2°55.673 1.7 273 6.5 101820 99
2005-01-17 08:20:29 51°13.8 2°55.664 2.2 251 6.5 101820 99
2005-01-17 08:20:36 51°13.812 2°55.651 3.1 233 6.5 101820 99
2005-01-17 08:20:41 51°13.822 2°55.642 3.9 227 6.5 101820 99
2005-01-17 08:20:46 51°13.831 2°55.634 1.8 275 6.5 101850 99
2005-01-17 08:20:52 51°13.843 2°55.624 0.6 271 6.5 101850 99
2005-01-17 08:20:56 51°13.851 2°55.617 0.6 153 6.5 101850 99
2005-01-17 08:21:01 51°13.862 2°55.608 1.4 329 6.5 101850 99
2005-01-17 08:21:06 51°13.873 2°55.6 1.9 340 6.5 101850 99
2005-01-17 08:21:10 51°13.881 2°55.594 2.7 303 6.5 101850 99
2005-01-17 08:21:16 51°13.895 2°55.584 3.8 283 6.5 101820 99
2005-01-17 08:21:20 51°13.903 2°55.578 3.7 334 6.5 101820 99
2005-01-17 08:21:24 51°13.913 2°55.572 3.4 39 6.5 101810 99
2005-01-17 08:21:30 51°13.926 2°55.562 2.7 297 6.5 101810 99
2005-01-17 08:21:36 51°13.94 2°55.552 1.8 304 6.5 101820 99
2005-01-17 08:21:40 51°13.949 2°55.545 2.2 321 6.5 101820 99
2005-01-17 08:21:46 51°13.962 2°55.535 2 312 6.5 101820 99
2005-01-17 08:21:51 51°13.974 2°55.527 1.1 297 6.5 101820 99
2005-01-17 08:21:56 51°13.985 2°55.518 1.9 313 6.5 101820 99
2005-01-17 08:22:00 51°13.994 2°55.511 2.4 326 6.5 101820 99
2005-01-17 08:22:06 51°14.008 2°55.5 2.7 321 6.5 101820 99
2005-01-17 08:22:09 51°14.015 2°55.495 4 298 6.5 101820 99
2005-01-17 08:22:16 51°14.031 2°55.483 2.6 282 6.5 101820 99
2005-01-17 08:22:20 51°14.04 2°55.477 3 318 6.5 101820 99
2005-01-17 08:22:26 51°14.054 2°55.466 3.6 324 6.5 101820 99
2005-01-17 08:22:31 51°14.067 2°55.457 2.5 296 6.5 101820 99
2005-01-17 08:22:36 51°14.079 2°55.448 3.5 315 6.5 101820 99
2005-01-17 08:22:41 51°14.092 2°55.439 4.9 278 6.5 101820 99
2005-01-17 08:22:46 51°14.105 2°55.43 5.1 273 6.5 101820 99
2005-01-17 08:22:51 51°14.118 2°55.42 4.6 259 6.5 101820 99
2005-01-17 08:22:56 51°14.131 2°55.41 3.9 261 6.5 101810 99
2005-01-17 08:23:01 51°14.144 2°55.4 3 246 6.5 101810 99
2005-01-17 08:23:06 51°14.157 2°55.389 2.7 321 6.5 101810 99
2005-01-17 08:23:12 51°14.173 2°55.374 4.5 299 6.5 101810 99
2005-01-17 08:23:16 51°14.183 2°55.365 4.7 298 6.5 101810 99
2005-01-17 08:23:21 51°14.196 2°55.352 5.2 267 6.5 101810 99
2005-01-17 08:23:26 51°14.208 2°55.338 4.2 279 6.5 101810 99
2005-01-17 08:23:30 51°14.217 2°55.326 3.9 265 6.5 101810 99
2005-01-17 08:23:36 51°14.231 2°55.308 4.6 265 6.5 101810 99
2005-01-17 08:23:41 51°14.243 2°55.291 3.7 338 6.5 101810 99
2005-01-17 08:23:46 51°14.254 2°55.274 3.8 335 6.6 101810 99
2005-01-17 08:23:52 51°14.267 2°55.252 5.4 338 6.6 101810 99
2005-01-17 08:23:56 51°14.276 2°55.237 4.8 335 6.5 101810 99
2005-01-17 08:24:01 51°14.286 2°55.218 7.3 314 6.5 101810 99
2005-01-17 08:24:05 51°14.295 2°55.202 6.6 331 6.5 101800 99
2005-01-17 08:24:11 51°14.307 2°55.177 5.2 326 6.5 101800 99
2005-01-17 08:24:16 51°14.317 2°55.157 6.7 331 6.5 101800 99
2005-01-17 08:24:21 51°14.327 2°55.136 9 324 6.5 101800 99
2005-01-17 08:24:26 51°14.337 2°55.115 7.9 41 6.5 101800 99
2005-01-17 08:24:31 51°14.347 2°55.095 6.7 33 6.5 101800 99
2005-01-17 08:24:36 51°14.358 2°55.074 8.7 333 6.5 101800 99
2005-01-17 08:24:40 51°14.367 2°55.058 7.7 305 6.5 101800 99
2005-01-17 08:24:46 51°14.38 2°55.034 8.9 284 6.5 101830 99
2005-01-17 08:24:50 51°14.39 2°55.019 6.5 289 6.5 101830 99
2005-01-17 08:24:56 51°14.404 2°54.996 6 299 6.5 101790 99
2005-01-17 08:25:01 51°14.416 2°54.977 8.1 299 6.5 101790 99
2005-01-17 08:25:06 51°14.429 2°54.958 8.8 285 6.6 101790 99
2005-01-17 08:25:10 51°14.438 2°54.944 8.9 284 6.6 101790 99
2005-01-17 08:25:16 51°14.454 2°54.922 8.5 287 6.6 101780 99
2005-01-17 08:25:21 51°14.467 2°54.905 7.6 301 6.6 101780 99
2005-01-17 08:25:25 51°14.477 2°54.891 9.1 285 6.6 101790 99
2005-01-17 08:25:29 51°14.488 2°54.877 9 283 6.6 101790 99
2005-01-17 08:25:36 51°14.506 2°54.854 9.3 282 6.6 101790 99
2005-01-17 08:25:40 51°14.516 2°54.84 10.5 269 6.6 101790 99
2005-01-17 08:25:45 51°14.529 2°54.822 7 263 6.6 101780 99
2005-01-17 08:25:49 51°14.54 2°54.808 8.1 293 6.6 101780 99
2005-01-17 08:25:56 51°14.558 2°54.784 8.5 289 6.6 101780 99
2005-01-17 08:26:01 51°14.572 2°54.768 8.1 285 6.6 101780 99
2005-01-17 08:26:06 51°14.586 2°54.753 7.8 285 6.6 101780 99
2005-01-17 08:26:10 51°14.598 2°54.74 7.3 291 6.6 101780 99
2005-01-17 08:26:16 51°14.614 2°54.721 7.5 292 6.6 101780 99
2005-01-17 08:26:21 51°14.628 2°54.706 7.3 290 6.6 101780 99
2005-01-17 08:26:26 51°14.643 2°54.69 7.1 282 6.6 101780 99
2005-01-17 08:26:31 51°14.656 2°54.674 6.8 278 6.6 101780 99
2005-01-17 08:26:36 51°14.67 2°54.659 7.3 279 6.6 101790 99
2005-01-17 08:26:41 51°14.684 2°54.643 7.1 279 6.6 101790 99
2005-01-17 08:26:46 51°14.698 2°54.627 6.6 285 6.6 101780 99
2005-01-17 08:26:49 51°14.706 2°54.618 7.2 276 6.6 101780 99
2005-01-17 08:26:56 51°14.726 2°54.597 6.7 275 6.6 101790 99
2005-01-17 08:27:01 51°14.74 2°54.582 6.5 281 6.6 101790 99
2005-01-17 08:27:06 51°14.754 2°54.567 7.3 267 6.6 101790 99
2005-01-17 08:27:09 51°14.763 2°54.558 7.2 273 6.6 101790 99
2005-01-17 08:27:16 51°14.782 2°54.537 7 269 6.5 101790 99
2005-01-17 08:27:20 51°14.794 2°54.525 8.4 268 6.5 101790 99
2005-01-17 08:27:26 51°14.811 2°54.507 7.8 270 6.6 101790 99
2005-01-17 08:27:29 51°14.819 2°54.498 8.9 271 6.6 101790 99
2005-01-17 08:27:36 51°14.839 2°54.477 7.1 265 6.6 101790 99
2005-01-17 08:27:41 51°14.853 2°54.462 6.7 279 6.6 101790 99
2005-01-17 08:27:44 51°14.862 2°54.453 8.5 274 6.6 101790 99
2005-01-17 08:27:49 51°14.876 2°54.438 7.8 272 6.6 101790 99
2005-01-17 08:27:56 51°14.896 2°54.418 8.9 264 6.6 101790 99
2005-01-17 08:28:00 51°14.906 2°54.408 7.7 275 6.6 101790 99
2005-01-17 08:28:06 51°14.921 2°54.392 8.2 262 6.6 101790 99
2005-01-17 08:28:11 51°14.932 2°54.38 8.3 261 6.6 101790 99
2005-01-17 08:28:16 51°14.942 2°54.368 7.3 257 6.6 101790 99
2005-01-17 08:28:21 51°14.952 2°54.357 8.4 259 6.6 101790 99
2005-01-17 08:28:26 51°14.962 2°54.345 8.7 269 6.6 101810 99
2005-01-17 08:28:31 51°14.971 2°54.334 8.8 262 6.6 101810 99
2005-01-17 08:28:36 51°14.98 2°54.324 6.3 257 6.6 101810 99
2005-01-17 08:28:40 51°14.987 2°54.316 9.8 261 6.6 101810 99
2005-01-17 08:28:46 51°14.997 2°54.305 7.8 257 6.6 101810 99
2005-01-17 08:28:50 51°15.004 2°54.298 6.7 257 6.6 101810 99
2005-01-17 08:28:56 51°15.014 2°54.288 9 245 6.6 101810 99
2005-01-17 08:29:00 51°15.021 2°54.282 6.6 250 6.6 101810 99
2005-01-17 08:29:06 51°15.03 2°54.273 7.9 245 6.6 101810 99
2005-01-17 08:29:10 51°15.036 2°54.267 7.3 247 6.6 101810 99
2005-01-17 08:29:16 51°15.045 2°54.259 5.8 249 6.6 101800 99
2005-01-17 08:29:20 51°15.051 2°54.253 7 246 6.6 101800 99
2005-01-17 08:29:25 51°15.059 2°54.246 5.4 257 6.6 101810 99
2005-01-17 08:29:28 51°15.063 2°54.242 6.6 258 6.6 101810 99
2005-01-17 08:29:36 51°15.075 2°54.231 6.3 251 6.6 101810 99
2005-01-17 08:29:41 51°15.082 2°54.224 7 253 6.6 101810 99
2005-01-17 08:29:45 51°15.087 2°54.219 6.4 252 6.6 101810 99
2005-01-17 08:29:52 51°15.097 2°54.21 7.4 248 6.6 101810 99
2005-01-17 08:29:56 51°15.102 2°54.206 6.8 246 6.7 101800 100
2005-01-17 08:30:00 51°15.108 2°54.201 6.9 250 6.7 101800 100
2005-01-17 08:30:06 51°15.117 2°54.194 5.6 249 6.6 101810 100
2005-01-17 08:30:09 51°15.12 2°54.19 7.7 259 6.6 101810 100
2005-01-17 08:30:16 51°15.129 2°54.183 6.2 253 6.7 101810 99
2005-01-17 08:30:21 51°15.136 2°54.177 5.3 255 6.7 101810 99
2005-01-17 08:30:25 51°15.141 2°54.173 7.9 247 6.6 101800 99
2005-01-17 08:30:29 51°15.146 2°54.168 6.1 255 6.6 101800 99
2005-01-17 08:30:36 51°15.154 2°54.16 6 254 6.7 101810 99
2005-01-17 08:30:41 51°15.16 2°54.154 8.4 232 6.7 101810 99
2005-01-17 08:30:46 51°15.166 2°54.148 6.7 248 6.7 101810 99
2005-01-17 08:30:50 51°15.171 2°54.143 7.7 252 6.7 101810 99
2005-01-17 08:30:56 51°15.178 2°54.136 8.6 255 6.7 101810 99
2005-01-17 08:31:00 51°15.183 2°54.131 7.5 249 6.7 101810 99
2005-01-17 08:31:06 51°15.19 2°54.124 6.1 254 6.7 101810 99
2005-01-17 08:31:11 51°15.196 2°54.118 6.3 252 6.7 101810 99
2005-01-17 08:31:16 51°15.201 2°54.113 6.8 253 6.7 101810 99
2005-01-17 08:31:20 51°15.206 2°54.108 7 255 6.7 101810 99
2005-01-17 08:31:26 51°15.212 2°54.1 5.9 257 6.7 101830 99
2005-01-17 08:31:31 51°15.218 2°54.094 9.8 271 6.7 101830 99
2005-01-17 08:31:36 51°15.224 2°54.088 7.1 247 6.7 101830 99
2005-01-17 08:31:41 51°15.229 2°54.084 7.4 253 6.7 101830 99
2005-01-17 08:31:46 51°15.235 2°54.078 9.1 246 6.7 101840 100
2005-01-17 08:31:49 51°15.238 2°54.076 8.9 243 6.7 101840 100
2005-01-17 08:31:56 51°15.246 2°54.068 6.8 247 6.7 101830 100
2005-01-17 08:32:00 51°15.25 2°54.063 6.9 254 6.7 101830 100
2005-01-17 08:32:05 51°15.255 2°54.058 6.4 254 6.7 101830 100
2005-01-17 08:32:10 51°15.261 2°54.053 6.1 254 6.7 101830 100
2005-01-17 08:32:16 51°15.267 2°54.045 6.1 254 6.7 101820 100
2005-01-17 08:32:20 51°15.271 2°54.041 6.8 253 6.7 101820 100
2005-01-17 08:32:24 51°15.275 2°54.036 7 251 6.7 101820 100
2005-01-17 08:32:32 51°15.284 2°54.027 6.5 255 6.7 101820 100
2005-01-17 08:32:36 51°15.288 2°54.023 6.3 257 6.7 101820 100
2005-01-17 08:32:40 51°15.292 2°54.018 6.7 253 6.7 101820 100
2005-01-17 08:32:44 51°15.297 2°54.012 9.8 265 6.7 101820 100
2005-01-17 08:32:50 51°15.305 2°54.003 7.4 256 6.7 101820 100
2005-01-17 08:32:56 51°15.314 2°53.993 6.9 252 6.7 101820 100
2005-01-17 08:33:01 51°15.324 2°53.983 6.9 252 6.7 101820 100
2005-01-17 08:33:05 51°15.332 2°53.975 6 249 6.7 101820 100
2005-01-17 08:33:11 51°15.345 2°53.962 8 263 6.7 101820 100
2005-01-17 08:33:16 51°15.357 2°53.951 6.6 262 6.7 101810 100
2005-01-17 08:33:21 51°15.369 2°53.938 6.2 255 6.7 101810 100
2005-01-17 08:33:26 51°15.382 2°53.925 5.8 259 6.7 101830 100
2005-01-17 08:33:31 51°15.396 2°53.91 7.6 263 6.7 101830 100
2005-01-17 08:33:36 51°15.41 2°53.895 8.7 266 6.7 101820 100
2005-01-17 08:33:40 51°15.421 2°53.882 8.8 271 6.7 101820 100
2005-01-17 08:33:46 51°15.439 2°53.862 10.1 274 6.7 101830 100
2005-01-17 08:33:50 51°15.45 2°53.849 11.1 271 6.7 101830 100
2005-01-17 08:33:56 51°15.468 2°53.828 9.6 267 6.7 101820 100
2005-01-17 08:34:00 51°15.48 2°53.815 9.5 270 6.7 101820 100
2005-01-17 08:34:04 51°15.493 2°53.801 9.6 274 6.7 101820 100
2005-01-17 08:34:12 51°15.518 2°53.774 9.1 275 6.7 101820 100
2005-01-17 08:34:16 51°15.531 2°53.76 8.5 267 6.7 101820 100
2005-01-17 08:34:21 51°15.547 2°53.743 8.4 281 6.7 101820 100
2005-01-17 08:34:26 51°15.562 2°53.726 9 266 6.7 101830 100
2005-01-17 08:34:31 51°15.579 2°53.708 8.1 270 6.7 101830 100
2005-01-17 08:34:36 51°15.596 2°53.691 10.6 273 6.7 101830 100
2005-01-17 08:34:41 51°15.612 2°53.675 8.5 261 6.7 101830 100
2005-01-17 08:34:46 51°15.629 2°53.661 6.3 260 6.7 101830 100
2005-01-17 08:34:51 51°15.646 2°53.646 5.9 260 6.7 101830 100
2005-01-17 08:34:56 51°15.663 2°53.631 7.4 275 6.7 101830 100
2005-01-17 08:35:01 51°15.681 2°53.616 7.9 262 6.7 101830 100
2005-01-17 08:35:05 51°15.694 2°53.606 8.4 272 6.7 101820 100
2005-01-17 08:35:09 51°15.708 2°53.594 7.8 276 6.7 101820 100
2005-01-17 08:35:16 51°15.733 2°53.574 8.2 263 6.7 101820 100
2005-01-17 08:35:20 51°15.746 2°53.562 6.8 258 6.7 101820 100
2005-01-17 08:35:25 51°15.763 2°53.547 6.3 257 6.7 101820 100
2005-01-17 08:35:29 51°15.777 2°53.536 7.4 266 6.7 101820 100
2005-01-17 08:35:36 51°15.801 2°53.516 7.7 266 6.7 101820 100
2005-01-17 08:35:41 51°15.819 2°53.501 7.7 261 6.7 101820 100
2005-01-17 08:35:46 51°15.836 2°53.487 7 258 6.7 101820 100
2005-01-17 08:35:51 51°15.853 2°53.473 5 252 6.7 101820 100
2005-01-17 08:35:56 51°15.871 2°53.458 6.7 261 6.7 101810 100
2005-01-17 08:36:00 51°15.885 2°53.447 9 266 6.7 101810 100
2005-01-17 08:36:06 51°15.906 2°53.429 6.7 269 6.7 101820 100
2005-01-17 08:36:11 51°15.924 2°53.415 9.6 268 6.7 101820 100
2005-01-17 08:36:16 51°15.941 2°53.4 8.8 263 6.7 101830 100
2005-01-17 08:36:21 51°15.958 2°53.387 9.9 268 6.7 101830 100
2005-01-17 08:36:26 51°15.976 2°53.372 8.6 267 6.7 101820 100
2005-01-17 08:36:30 51°15.99 2°53.361 7.9 265 6.7 101820 100
2005-01-17 08:36:36 51°16.011 2°53.344 8.2 277 6.8 101820 100
2005-01-17 08:36:41 51°16.029 2°53.33 9.2 270 6.8 101820 100
2005-01-17 08:36:46 51°16.046 2°53.316 10.1 265 6.8 101820 100
2005-01-17 08:36:49 51°16.057 2°53.307 9.6 264 6.8 101820 100
2005-01-17 08:36:56 51°16.082 2°53.288 9.2 262 6.8 101820 100
2005-01-17 08:37:00 51°16.096 2°53.277 7.6 266 6.8 101820 100
2005-01-17 08:37:06 51°16.117 2°53.26 8.2 265 6.8 101820 100
2005-01-17 08:37:10 51°16.131 2°53.248 8.7 273 6.8 101820 100
2005-01-17 08:37:16 51°16.152 2°53.231 8.2 264 6.8 101750 100
2005-01-17 08:37:21 51°16.169 2°53.217 6.2 256 6.8 101750 100
2005-01-17 08:37:26 51°16.187 2°53.203 7.7 267 6.7 101750 100
2005-01-17 08:37:30 51°16.2 2°53.191 7.7 259 6.7 101750 100
2005-01-17 08:37:36 51°16.222 2°53.175 8.6 273 6.8 101750 100
2005-01-17 08:37:41 51°16.239 2°53.161 7.8 263 6.8 101750 100
2005-01-17 08:37:46 51°16.257 2°53.147 8.1 262 6.8 101750 100
2005-01-17 08:37:48 51°16.264 2°53.14 7.6 271 6.8 101750 100
2005-01-17 08:37:56 51°16.292 2°53.118 10 268 6.8 101750 100
2005-01-17 08:38:00 51°16.306 2°53.108 7.8 266 6.8 101750 100
2005-01-17 08:38:06 51°16.327 2°53.092 6.7 261 6.8 101750 100
2005-01-17 08:38:10 51°16.341 2°53.081 8 265 6.8 101750 100
2005-01-17 08:38:16 51°16.362 2°53.065 7.8 264 6.8 101750 100
2005-01-17 08:38:20 51°16.376 2°53.054 7.2 279 6.8 101750 100
2005-01-17 08:38:26 51°16.398 2°53.037 6.9 263 6.8 101750 100
2005-01-17 08:38:31 51°16.415 2°53.023 8.9 263 6.8 101750 100
2005-01-17 08:38:36 51°16.432 2°53.01 7.3 260 6.8 101750 100
2005-01-17 08:38:41 51°16.45 2°52.996 8 262 6.8 101750 100
2005-01-17 08:38:46 51°16.467 2°52.983 8.4 261 6.8 101750 100
2005-01-17 08:38:49 51°16.479 2°52.974 7 270 6.8 101750 100
2005-01-17 08:38:56 51°16.503 2°52.956 7.1 264 6.8 101750 100
2005-01-17 08:39:00 51°16.517 2°52.944 6.9 263 6.8 101750 100
2005-01-17 08:39:06 51°16.538 2°52.928 8.3 274 6.8 101750 100
2005-01-17 08:39:10 51°16.552 2°52.917 9.4 264 6.8 101750 100
2005-01-17 08:39:16 51°16.573 2°52.901 9.1 266 6.8 101750 100
2005-01-17 08:39:21 51°16.591 2°52.887 7.4 260 6.8 101750 100
2005-01-17 08:39:26 51°16.608 2°52.873 8.2 262 6.8 101750 100
2005-01-17 08:39:30 51°16.623 2°52.862 7.1 268 6.8 101750 100
2005-01-17 08:39:36 51°16.643 2°52.845 7 263 6.8 101800 100
2005-01-17 08:39:40 51°16.658 2°52.835 7.4 259 6.8 101800 100
2005-01-17 08:39:46 51°16.679 2°52.82 6.2 260 6.8 101800 100
2005-01-17 08:39:50 51°16.693 2°52.811 7.6 263 6.8 101800 100
2005-01-17 08:39:56 51°16.715 2°52.796 5.3 266 6.8 101800 100
2005-01-17 08:40:01 51°16.732 2°52.784 6.9 267 6.8 101800 100
2005-01-17 08:40:06 51°16.751 2°52.771 7.9 261 6.8 101800 100
2005-01-17 08:40:10 51°16.766 2°52.761 6.8 261 6.8 101800 100
2005-01-17 08:40:16 51°16.787 2°52.746 7.9 263 6.8 101800 100
2005-01-17 08:40:21 51°16.804 2°52.734 7.8 265 6.8 101800 100
2005-01-17 08:40:26 51°16.823 2°52.722 8 265 6.8 101790 100
2005-01-17 08:40:31 51°16.84 2°52.71 5 255 6.8 101790 100
2005-01-17 08:40:36 51°16.858 2°52.698 5.7 256 6.8 101810 100
2005-01-17 08:40:40 51°16.872 2°52.688 6.6 265 6.8 101810 100
2005-01-17 08:40:46 51°16.893 2°52.674 6.6 262 6.8 101800 100
2005-01-17 08:40:51 51°16.911 2°52.662 6 258 6.8 101800 100
2005-01-17 08:40:56 51°16.93 2°52.649 7 261 6.8 101800 100
2005-01-17 08:41:00 51°16.944 2°52.64 5.2 257 6.8 101800 100
2005-01-17 08:41:06 51°16.966 2°52.624 4.9 259 6.8 101800 100
2005-01-17 08:41:08 51°16.973 2°52.62 4.7 254 6.8 101800 100
2005-01-17 08:41:16 51°17.002 2°52.599 4.6 253 6.8 101790 100
2005-01-17 08:41:20 51°17.017 2°52.589 6.2 259 6.8 101790 100
2005-01-17 08:41:25 51°17.035 2°52.576 7.4 267 6.8 101790 100
2005-01-17 08:41:29 51°17.05 2°52.566 4.9 261 6.8 101790 100
2005-01-17 08:41:36 51°17.075 2°52.55 7.4 264 6.8 101800 100
2005-01-17 08:41:41 51°17.093 2°52.537 6.4 259 6.8 101800 100
2005-01-17 08:41:46 51°17.111 2°52.524 7.9 260 6.8 101800 100
2005-01-17 08:41:50 51°17.125 2°52.514 7.9 267 6.8 101800 100
2005-01-17 08:41:56 51°17.147 2°52.5 6.1 281 6.8 101790 100
2005-01-17 08:42:01 51°17.165 2°52.487 8.6 274 6.8 101790 100
2005-01-17 08:42:06 51°17.183 2°52.473 7.2 264 6.8 101790 100
2005-01-17 08:42:10 51°17.198 2°52.463 6.8 284 6.8 101790 100
2005-01-17 08:42:16 51°17.219 2°52.449 7.4 272 6.8 101790 100
2005-01-17 08:42:21 51°17.238 2°52.437 5.5 259 6.8 101790 100
2005-01-17 08:42:26 51°17.256 2°52.424 6.3 260 6.8 101790 100
2005-01-17 08:42:31 51°17.274 2°52.412 5.3 257 6.8 101790 100
2005-01-17 08:42:36 51°17.293 2°52.399 6.8 260 6.8 101790 100
2005-01-17 08:42:40 51°17.307 2°52.389 7.2 271 6.8 101790 100
2005-01-17 08:42:46 51°17.329 2°52.373 6.3 260 6.8 101790 100
2005-01-17 08:42:51 51°17.347 2°52.362 4.8 262 6.8 101790 100
2005-01-17 08:42:56 51°17.366 2°52.35 4.9 258 6.8 101800 100
2005-01-17 08:43:01 51°17.384 2°52.337 5.7 264 6.8 101800 100
2005-01-17 08:43:06 51°17.402 2°52.325 6.9 261 6.8 101790 100
2005-01-17 08:43:10 51°17.416 2°52.316 5.9 259 6.8 101790 100
2005-01-17 08:43:16 51°17.438 2°52.302 6.9 260 6.8 101780 100
2005-01-17 08:43:21 51°17.457 2°52.289 6.9 267 6.8 101780 100
2005-01-17 08:43:26 51°17.475 2°52.276 6.3 273 6.8 101790 100
2005-01-17 08:43:29 51°17.486 2°52.269 8.5 262 6.8 101790 100
2005-01-17 08:43:36 51°17.511 2°52.249 7.8 275 6.8 101790 100
2005-01-17 08:43:41 51°17.528 2°52.232 10.1 269 6.8 101790 100
2005-01-17 08:43:46 51°17.544 2°52.215 8.8 270 6.8 101800 100
2005-01-17 08:43:50 51°17.556 2°52.2 8.8 281 6.8 101800 100
2005-01-17 08:43:56 51°17.575 2°52.177 9 285 6.8 101790 100
2005-01-17 08:44:00 51°17.587 2°52.161 8.9 281 6.8 101790 100
2005-01-17 08:44:06 51°17.605 2°52.137 9.2 276 6.8 101780 100
2005-01-17 08:44:11 51°17.62 2°52.117 9.2 288 6.8 101780 100
2005-01-17 08:44:16 51°17.633 2°52.095 11.1 290 6.8 101780 100
2005-01-17 08:44:21 51°17.648 2°52.073 12.2 284 6.8 101780 100
2005-01-17 08:44:26 51°17.661 2°52.051 11.2 280 6.8 101790 100
2005-01-17 08:44:29 51°17.668 2°52.037 10.5 292 6.8 101790 100
2005-01-17 08:44:36 51°17.687 2°52.005 11.9 289 6.8 101780 100
2005-01-17 08:44:40 51°17.697 2°51.985 12.6 289 6.8 101780 100
2005-01-17 08:44:45 51°17.71 2°51.962 10.3 287 6.8 101770 100
2005-01-17 08:44:50 51°17.723 2°51.938 10.9 284 6.8 101770 100
2005-01-17 08:44:56 51°17.738 2°51.91 10.1 293 6.8 101780 100
2005-01-17 08:45:01 51°17.751 2°51.886 10.3 290 6.8 101780 100
2005-01-17 08:45:05 51°17.761 2°51.867 10.9 287 6.8 101770 100
2005-01-17 08:45:09 51°17.771 2°51.848 12.1 287 6.8 101770 100
2005-01-17 08:45:16 51°17.789 2°51.815 11.8 284 6.8 101770 100
2005-01-17 08:45:21 51°17.802 2°51.792 11.4 287 6.8 101770 100
2005-01-17 08:45:26 51°17.815 2°51.769 11.2 279 6.9 101780 100
2005-01-17 08:45:31 51°17.828 2°51.745 10.5 283 6.9 101780 100
2005-01-17 08:45:36 51°17.841 2°51.722 12.4 289 6.9 101770 100
2005-01-17 08:45:40 51°17.852 2°51.703 12.2 292 6.9 101770 100
2005-01-17 08:45:46 51°17.867 2°51.675 11.1 283 6.9 101770 100
2005-01-17 08:45:52 51°17.883 2°51.647 10.3 290 6.9 101770 100
2005-01-17 08:45:56 51°17.894 2°51.628 11.7 281 6.9 101780 100
2005-01-17 08:46:00 51°17.904 2°51.609 11.1 282 6.9 101780 100
2005-01-17 08:46:06 51°17.92 2°51.581 9.7 289 6.9 101770 100
2005-01-17 08:46:11 51°17.933 2°51.557 11.3 282 6.9 101770 100
2005-01-17 08:46:16 51°17.946 2°51.533 12.1 280 6.9 101770 100
2005-01-17 08:46:21 51°17.958 2°51.509 12.5 291 6.9 101770 100
2005-01-17 08:46:26 51°17.969 2°51.483 13.7 294 6.9 101780 100
2005-01-17 08:46:32 51°17.983 2°51.452 10.9 288 6.9 101780 100
2005-01-17 08:46:36 51°17.991 2°51.431 11.8 290 6.9 101770 100
2005-01-17 08:46:41 51°18.002 2°51.405 12.7 293 6.9 101770 100
2005-01-17 08:46:46 51°18.012 2°51.378 12 288 6.9 101770 100
2005-01-17 08:46:52 51°18.024 2°51.345 14.2 299 6.9 101770 100
2005-01-17 08:46:56 51°18.032 2°51.324 13 291 6.9 101760 100
2005-01-17 08:47:01 51°18.041 2°51.297 11 299 6.9 101760 100
2005-01-17 08:47:05 51°18.049 2°51.274 10.9 302 6.9 101770 100
2005-01-17 08:47:09 51°18.056 2°51.252 12.2 294 6.9 101770 100
2005-01-17 08:47:16 51°18.069 2°51.214 12.7 295 6.9 101760 100
2005-01-17 08:47:20 51°18.077 2°51.192 12.4 291 6.9 101760 100
2005-01-17 08:47:26 51°18.089 2°51.159 12.1 295 6.9 101760 100
2005-01-17 08:47:31 51°18.098 2°51.132 11.9 297 6.9 101760 100
2005-01-17 08:47:36 51°18.108 2°51.105 12.7 300 6.9 101760 100
2005-01-17 08:47:40 51°18.115 2°51.082 13.3 291 6.9 101760 100
2005-01-17 08:47:46 51°18.127 2°51.05 12 299 6.9 101760 100
2005-01-17 08:47:51 51°18.136 2°51.022 13.7 294 6.9 101760 100
2005-01-17 08:47:56 51°18.146 2°50.995 13.5 294 6.9 101760 100
2005-01-17 08:48:00 51°18.154 2°50.973 14 297 6.9 101760 100
2005-01-17 08:48:06 51°18.165 2°50.94 12.3 303 6.9 101760 100
2005-01-17 08:48:09 51°18.171 2°50.924 11.1 296 6.9 101760 100
2005-01-17 08:48:16 51°18.185 2°50.887 11.3 302 6.9 101760 100
2005-01-17 08:48:21 51°18.195 2°50.858 12.1 303 6.9 101760 100
2005-01-17 08:48:24 51°18.201 2°50.842 11.8 302 6.9 101760 100
2005-01-17 08:48:28 51°18.208 2°50.82 13.7 296 6.9 101760 100
2005-01-17 08:48:36 51°18.224 2°50.777 12.2 293 6.9 101760 100
2005-01-17 08:48:41 51°18.233 2°50.751 12.6 299 6.9 101760 100
2005-01-17 08:48:46 51°18.243 2°50.724 12.7 294 6.9 101770 100
2005-01-17 08:48:51 51°18.253 2°50.697 11.4 291 6.9 101770 100
2005-01-17 08:48:56 51°18.262 2°50.67 12.1 293 7 101760 100
2005-01-17 08:49:01 51°18.272 2°50.643 12.6 291 7 101760 100
2005-01-17 08:49:06 51°18.281 2°50.616 11.6 297 7 101760 100
2005-01-17 08:49:12 51°18.293 2°50.583 11.4 298 7 101760 100
2005-01-17 08:49:16 51°18.301 2°50.562 12.3 296 7 101760 100
2005-01-17 08:49:21 51°18.31 2°50.536 13.8 301 7 101760 100
2005-01-17 08:49:26 51°18.32 2°50.509 11.8 300 7 101760 100
2005-01-17 08:49:31 51°18.33 2°50.482 12 297 7 101760 100
2005-01-17 08:49:36 51°18.339 2°50.455 12.5 295 7 101770 100
2005-01-17 08:49:41 51°18.349 2°50.427 12.9 293 7 101770 100
2005-01-17 08:49:46 51°18.359 2°50.401 11.9 297 7 101750 100
2005-01-17 08:49:52 51°18.37 2°50.369 12.2 290 7 101750 100
2005-01-17 08:49:56 51°18.378 2°50.347 12.4 297 7 101700 100
2005-01-17 08:50:01 51°18.388 2°50.32 13 298 7 101700 100
2005-01-17 08:50:06 51°18.398 2°50.293 11.8 301 7 101710 100
2005-01-17 08:50:11 51°18.408 2°50.266 12.1 295 7 101710 100
2005-01-17 08:50:16 51°18.417 2°50.239 13.3 292 7 101710 100
2005-01-17 08:50:21 51°18.427 2°50.213 13.8 300 7 101710 100
2005-01-17 08:50:26 51°18.437 2°50.186 13.7 295 7 101710 100
2005-01-17 08:50:31 51°18.447 2°50.159 12.6 292 7 101710 100
2005-01-17 08:50:36 51°18.456 2°50.133 12.3 296 7 101710 100
2005-01-17 08:50:41 51°18.466 2°50.106 12.1 300 7 101710 100
2005-01-17 08:50:46 51°18.476 2°50.078 13.3 299 7 101710 100
2005-01-17 08:50:50 51°18.484 2°50.057 12.7 294 7 101710 100
2005-01-17 08:50:56 51°18.495 2°50.025 13.3 295 7 101700 100
2005-01-17 08:51:00 51°18.503 2°50.003 11.2 301 7 101700 100
2005-01-17 08:51:06 51°18.513 2°49.97 13 298 7 101700 100
2005-01-17 08:51:12 51°18.525 2°49.938 11.7 304 7 101700 100
2005-01-17 08:51:16 51°18.532 2°49.916 11 295 7 101700 100
2005-01-17 08:51:21 51°18.542 2°49.889 12 295 7 101700 100
2005-01-17 08:51:26 51°18.551 2°49.862 13.2 296 7 101700 100
2005-01-17 08:51:28 51°18.555 2°49.85 12.8 303 7 101700 100
2005-01-17 08:51:36 51°18.57 2°49.808 11.9 290 7 101710 100
2005-01-17 08:51:41 51°18.579 2°49.78 10.7 298 7 101710 100
2005-01-17 08:51:46 51°18.588 2°49.753 11.9 298 7 101710 100
2005-01-17 08:51:51 51°18.598 2°49.726 10.8 304 7 101710 100
2005-01-17 08:51:56 51°18.607 2°49.699 11.8 299 7 101700 100
2005-01-17 08:52:01 51°18.616 2°49.672 12.4 296 7 101700 100
2005-01-17 08:52:06 51°18.626 2°49.645 12.1 299 7 101710 100
2005-01-17 08:52:12 51°18.637 2°49.612 13.4 294 7 101710 100
2005-01-17 08:52:16 51°18.644 2°49.591 12.6 299 7 101710 100
2005-01-17 08:52:20 51°18.652 2°49.569 11.9 298 7 101710 100
2005-01-17 08:52:26 51°18.663 2°49.537 12.7 301 7 101700 100
2005-01-17 08:52:31 51°18.673 2°49.51 11.3 302 7 101700 100
2005-01-17 08:52:36 51°18.682 2°49.483 13.8 306 7 101700 100
2005-01-17 08:52:41 51°18.691 2°49.456 12.2 295 7 101700 100
2005-01-17 08:52:46 51°18.701 2°49.429 12.7 300 7 101700 100
2005-01-17 08:52:51 51°18.71 2°49.402 12.1 303 7 101700 100
2005-01-17 08:52:56 51°18.719 2°49.374 13.6 294 7 101710 100
2005-01-17 08:53:01 51°18.729 2°49.347 12.5 303 7 101710 100
2005-01-17 08:53:06 51°18.738 2°49.32 13.1 301 7 101700 100
2005-01-17 08:53:11 51°18.747 2°49.293 12.1 296 7 101700 100
2005-01-17 08:53:16 51°18.757 2°49.266 11.7 297 7 101710 100
2005-01-17 08:53:21 51°18.766 2°49.238 13.1 299 7 101710 100
2005-01-17 08:53:26 51°18.776 2°49.211 13.3 302 7 101700 100
2005-01-17 08:53:31 51°18.786 2°49.183 11.2 302 7 101700 100
2005-01-17 08:53:36 51°18.795 2°49.156 13.2 299 7 101700 100
2005-01-17 08:53:40 51°18.803 2°49.134 12.1 301 7 101700 100
2005-01-17 08:53:46 51°18.815 2°49.101 13.5 299 7 101700 100
2005-01-17 08:53:50 51°18.822 2°49.079 12 299 7 101700 100
2005-01-17 08:53:56 51°18.833 2°49.046 13.7 300 7 101700 100
2005-01-17 08:54:01 51°18.843 2°49.019 14.1 298 7 101700 100
2005-01-17 08:54:06 51°18.853 2°48.992 13.7 293 7 101700 100
2005-01-17 08:54:11 51°18.862 2°48.964 13 298 7 101700 100
2005-01-17 08:54:16 51°18.872 2°48.937 12.8 299 7 101700 100
2005-01-17 08:54:21 51°18.881 2°48.909 14.7 297 7 101700 100
2005-01-17 08:54:25 51°18.889 2°48.887 13.3 298 7.1 101700 100
2005-01-17 08:54:29 51°18.896 2°48.865 12.7 294 7.1 101700 100
2005-01-17 08:54:36 51°18.909 2°48.828 13.2 295 7 101690 100
2005-01-17 08:54:41 51°18.919 2°48.799 13.7 295 7 101690 100
2005-01-17 08:54:46 51°18.929 2°48.771 13.7 302 7 101700 100
2005-01-17 08:54:51 51°18.938 2°48.744 12.4 296 7 101700 100
2005-01-17 08:54:56 51°18.948 2°48.717 12.2 294 7 101700 100
2005-01-17 08:55:01 51°18.958 2°48.689 12.8 291 7 101700 100
2005-01-17 08:55:06 51°18.967 2°48.663 13.5 297 7 101700 100
2005-01-17 08:55:11 51°18.977 2°48.635 14.6 294 7 101700 100
2005-01-17 08:55:16 51°18.986 2°48.608 13.8 299 7.1 101690 100
2005-01-17 08:55:20 51°18.994 2°48.586 13.4 297 7.1 101690 100
2005-01-17 08:55:26 51°19.005 2°48.552 12.3 298 7.1 101690 100
2005-01-17 08:55:31 51°19.014 2°48.526 13.9 297 7.1 101690 100
2005-01-17 08:55:36 51°19.023 2°48.498 12.8 294 7.1 101690 100
2005-01-17 08:55:41 51°19.033 2°48.47 14.1 298 7.1 101690 100
2005-01-17 08:55:45 51°19.041 2°48.449 14.2 294 7.1 101690 100
2005-01-17 08:55:49 51°19.048 2°48.426 14.7 291 7.1 101690 100
2005-01-17 08:55:56 51°19.062 2°48.389 12.5 294 7.1 101700 100
2005-01-17 08:56:01 51°19.071 2°48.361 13.8 294 7.1 101700 100
2005-01-17 08:56:06 51°19.081 2°48.334 12.6 294 7 101690 100
2005-01-17 08:56:09 51°19.087 2°48.318 12.6 296 7 101690 100
2005-01-17 08:56:16 51°19.1 2°48.279 12 298 7.1 101690 100
2005-01-17 08:56:21 51°19.11 2°48.252 13.8 294 7.1 101690 100
2005-01-17 08:56:26 51°19.119 2°48.225 11.9 301 7.1 101700 100
2005-01-17 08:56:30 51°19.127 2°48.203 13.3 292 7.1 101700 100
2005-01-17 08:56:36 51°19.138 2°48.17 11 298 7.1 101690 100
2005-01-17 08:56:41 51°19.148 2°48.143 12.9 296 7.1 101690 100
2005-01-17 08:56:46 51°19.157 2°48.115 14.3 291 7.1 101690 100
2005-01-17 08:56:50 51°19.165 2°48.094 12.2 303 7.1 101690 100
2005-01-17 08:56:56 51°19.176 2°48.061 12.9 304 7.1 101690 100
2005-01-17 08:57:00 51°19.184 2°48.04 12.6 293 7.1 101690 100
2005-01-17 08:57:06 51°19.195 2°48.007 13.8 300 7.1 101690 100
2005-01-17 08:57:11 51°19.205 2°47.98 14 291 7.1 101690 100
2005-01-17 08:57:16 51°19.215 2°47.955 13.2 291 7.1 101690 100
2005-01-17 08:57:21 51°19.225 2°47.927 11.8 302 7.1 101690 100
2005-01-17 08:57:26 51°19.234 2°47.9 12.8 300 7.1 101690 100
2005-01-17 08:57:31 51°19.244 2°47.873 13.1 296 7.1 101690 100
2005-01-17 08:57:36 51°19.253 2°47.847 15.5 297 7.1 101690 100
2005-01-17 08:57:41 51°19.263 2°47.82 12.9 301 7.1 101690 100
2005-01-17 08:57:46 51°19.272 2°47.793 12.1 297 7.1 101690 100
2005-01-17 08:57:50 51°19.279 2°47.772 12 306 7.1 101690 100
2005-01-17 08:57:56 51°19.29 2°47.739 11.6 296 7.1 101690 100
2005-01-17 08:58:00 51°19.298 2°47.718 15.4 298 7.1 101690 100
2005-01-17 08:58:06 51°19.31 2°47.685 14.2 294 7.1 101690 100
2005-01-17 08:58:08 51°19.314 2°47.675 12.7 295 7.1 101690 100
2005-01-17 08:58:16 51°19.329 2°47.632 12.5 299 7 101680 100
2005-01-17 08:58:20 51°19.336 2°47.611 12.8 300 7 101680 100
2005-01-17 08:58:26 51°19.348 2°47.579 13.2 296 7.1 101690 100
2005-01-17 08:58:31 51°19.357 2°47.552 12.3 301 7.1 101690 100
2005-01-17 08:58:36 51°19.367 2°47.525 12.5 295 7.1 101680 100
2005-01-17 08:58:41 51°19.376 2°47.498 14.3 297 7.1 101680 100
2005-01-17 08:58:46 51°19.386 2°47.472 13.1 300 7.1 101680 100
2005-01-17 08:58:51 51°19.396 2°47.444 12.7 292 7.1 101680 100
2005-01-17 08:58:56 51°19.405 2°47.418 15.1 293 7.1 101690 100
2005-01-17 08:59:01 51°19.414 2°47.391 12 289 7.1 101690 100
2005-01-17 08:59:06 51°19.424 2°47.364 12.6 300 7.1 101680 100
2005-01-17 08:59:10 51°19.431 2°47.342 13.6 296 7.1 101680 100
2005-01-17 08:59:16 51°19.443 2°47.308 12.2 300 7.1 101690 100
2005-01-17 08:59:21 51°19.452 2°47.283 14.1 297 7.1 101690 100
2005-01-17 08:59:25 51°19.46 2°47.261 13.4 298 7.1 101670 100
2005-01-17 08:59:28 51°19.465 2°47.245 12.5 297 7.1 101670 100
2005-01-17 08:59:36 51°19.481 2°47.201 12.4 302 7.1 101690 100
2005-01-17 08:59:41 51°19.49 2°47.175 12.1 297 7.1 101690 100
2005-01-17 08:59:46 51°19.5 2°47.148 13.1 291 7.1 101680 100
2005-01-17 08:59:48 51°19.504 2°47.137 13.8 298 7.1 101680 100
2005-01-17 08:59:56 51°19.519 2°47.095 13 295 7.1 101680 100
2005-01-17 09:00:01 51°19.528 2°47.069 13.3 302 7.1 101680 100
2005-01-17 09:00:06 51°19.538 2°47.041 15.6 295 7.1 101680 100
2005-01-17 09:00:09 51°19.543 2°47.026 11.7 299 7.1 101680 100
2005-01-17 09:00:16 51°19.557 2°46.988 14.1 293 7.1 101680 100
2005-01-17 09:00:21 51°19.566 2°46.96 14.2 295 7.1 101680 100
2005-01-17 09:00:24 51°19.572 2°46.944 13.9 292 7.1 101680 100
2005-01-17 09:00:29 51°19.581 2°46.917 12.4 297 7.1 101680 100
2005-01-17 09:00:36 51°19.594 2°46.88 13.1 296 7.1 101680 100
2005-01-17 09:00:40 51°19.602 2°46.858 13.2 300 7.1 101680 100
2005-01-17 09:00:46 51°19.613 2°46.826 13.1 299 7.1 101670 100
2005-01-17 09:00:50 51°19.621 2°46.804 13.1 298 7.1 101670 100
2005-01-17 09:00:56 51°19.632 2°46.771 14.1 300 7.1 101680 100
2005-01-17 09:01:01 51°19.641 2°46.744 13.3 296 7.1 101680 100
2005-01-17 09:01:06 51°19.65 2°46.717 14.1 299 7.1 101670 100
2005-01-17 09:01:10 51°19.657 2°46.695 12.7 298 7.1 101670 100
2005-01-17 09:01:16 51°19.668 2°46.663 12.8 291 7.1 101680 100
2005-01-17 09:01:21 51°19.677 2°46.635 13.3 304 7.1 101680 100
2005-01-17 09:01:26 51°19.685 2°46.608 14.6 293 7.1 101680 100
2005-01-17 09:01:32 51°19.696 2°46.574 14.4 285 7.1 101680 100
2005-01-17 09:01:36 51°19.703 2°46.552 14.2 296 7.1 101670 100
2005-01-17 09:01:41 51°19.711 2°46.525 15.6 295 7.1 101670 100
2005-01-17 09:01:46 51°19.72 2°46.497 15.3 293 7.2 101670 100
2005-01-17 09:01:48 51°19.723 2°46.485 14.6 305 7.2 101670 100
2005-01-17 09:01:56 51°19.736 2°46.441 14.1 302 7.2 101660 100
2005-01-17 09:02:00 51°19.743 2°46.419 15.1 297 7.2 101660 100
2005-01-17 09:02:06 51°19.753 2°46.385 14.5 306 7.2 101670 100
2005-01-17 09:02:10 51°19.76 2°46.364 12.8 301 7.2 101670 100
2005-01-17 09:02:16 51°19.77 2°46.331 14.3 304 7.2 101660 100
2005-01-17 09:02:21 51°19.778 2°46.303 13.3 298 7.2 101660 100
2005-01-17 09:02:26 51°19.787 2°46.275 14 298 7.2 101670 100
2005-01-17 09:02:28 51°19.791 2°46.265 13.3 303 7.2 101670 100
2005-01-17 09:02:36 51°19.805 2°46.221 15.1 298 7.2 101660 100
2005-01-17 09:02:41 51°19.815 2°46.194 14.3 291 7.2 101660 100
2005-01-17 09:02:45 51°19.823 2°46.174 12.2 302 7.2 101670 100
2005-01-17 09:02:50 51°19.835 2°46.149 13.6 287 7.2 101670 100
2005-01-17 09:02:56 51°19.847 2°46.121 14.1 282 7.2 101660 100
2005-01-17 09:03:01 51°19.857 2°46.1 12.1 280 7.2 101660 100
2005-01-17 09:03:06 51°19.868 2°46.08 12.6 284 7.2 101670 100
2005-01-17 09:03:08 51°19.871 2°46.072 12 279 7.2 101670 100
2005-01-17 09:03:16 51°19.885 2°46.042 12.2 286 7.2 101660 100
2005-01-17 09:03:20 51°19.891 2°46.028 12.2 292 7.2 101660 100
2005-01-17 09:03:26 51°19.9 2°46.008 14.4 292 7.2 101710 100
2005-01-17 09:03:30 51°19.904 2°45.995 15.7 292 7.2 101710 100
2005-01-17 09:03:36 51°19.909 2°45.975 14.3 291 7.2 101720 100
2005-01-17 09:03:41 51°19.913 2°45.959 15.3 298 7.2 101720 100
2005-01-17 09:03:46 51°19.916 2°45.944 15.3 299 7.2 101720 100
2005-01-17 09:03:48 51°19.917 2°45.938 15.7 307 7.2 101720 100
2005-01-17 09:03:56 51°19.918 2°45.916 15.1 308 7.2 101710 100
2005-01-17 09:04:01 51°19.918 2°45.904 14 43 7.2 101710 100
2005-01-17 09:04:05 51°19.917 2°45.895 13 319 7.2 101710 100
2005-01-17 09:04:10 51°19.916 2°45.884 16.6 317 7.2 101710 100
2005-01-17 09:04:16 51°19.914 2°45.871 13.9 330 7.2 101710 100
2005-01-17 09:04:21 51°19.912 2°45.862 16.5 331 7.2 101710 100
2005-01-17 09:04:26 51°19.909 2°45.852 14.8 334 7.2 101710 100
2005-01-17 09:04:30 51°19.907 2°45.846 13.8 332 7.2 101710 100
2005-01-17 09:04:36 51°19.903 2°45.836 14.2 334 7.2 101720 100
2005-01-17 09:04:41 51°19.9 2°45.828 15.1 336 7.2 101720 100
2005-01-17 09:04:46 51°19.898 2°45.821 14.1 346 7.2 101710 100
2005-01-17 09:04:51 51°19.895 2°45.814 14.7 339 7.2 101710 100
2005-01-17 09:04:56 51°19.893 2°45.808 14.1 343 7.2 101710 100
2005-01-17 09:05:01 51°19.891 2°45.803 13.6 340 7.2 101710 100
2005-01-17 09:05:06 51°19.89 2°45.8 12.3 339 7.2 101750 100
2005-01-17 09:05:10 51°19.889 2°45.797 13.5 343 7.2 101750 100
2005-01-17 09:05:16 51°19.888 2°45.794 13.2 342 7.2 101730 100
2005-01-17 09:05:20 51°19.888 2°45.792 13.5 344 7.2 101730 100
2005-01-17 09:05:24 51°19.889 2°45.791 13.5 344 7.2 101720 100
2005-01-17 09:05:32 51°19.889 2°45.788 11.9 345 7.2 101720 100
2005-01-17 09:05:36 51°19.889 2°45.787 12.2 348 7.2 101720 99
2005-01-17 09:05:41 51°19.89 2°45.786 11.8 348 7.2 101720 99
2005-01-17 09:05:46 51°19.89 2°45.785 11.8 341 7.2 101730 99
2005-01-17 09:05:51 51°19.892 2°45.784 11.1 342 7.2 101730 99
2005-01-17 09:05:56 51°19.892 2°45.784 11.2 345 7.3 101730 99
2005-01-17 09:06:00 51°19.893 2°45.783 12.2 350 7.3 101730 99
2005-01-17 09:06:06 51°19.894 2°45.783 12.1 344 7.3 101730 99
2005-01-17 09:06:11 51°19.895 2°45.782 12.3 347 7.3 101730 99
2005-01-17 09:06:16 51°19.896 2°45.782 12.2 346 7.3 101740 99
2005-01-17 09:06:21 51°19.897 2°45.782 11.2 343 7.3 101740 99
2005-01-17 09:06:26 51°19.899 2°45.782 11.6 343 7.3 101740 99
2005-01-17 09:06:32 51°19.9 2°45.781 10.6 343 7.3 101740 99
2005-01-17 09:06:36 51°19.901 2°45.781 11.4 343 7.3 101740 99
2005-01-17 09:06:40 51°19.902 2°45.781 10.4 329 7.3 101740 99
2005-01-17 09:06:46 51°19.903 2°45.782 10.5 329 7.3 101740 99
2005-01-17 09:06:51 51°19.905 2°45.781 9.2 330 7.3 101740 99
2005-01-17 09:06:56 51°19.906 2°45.781 11.5 321 7.2 101740 99
2005-01-17 09:07:01 51°19.908 2°45.782 11 326 7.2 101740 99
2005-01-17 09:07:06 51°19.91 2°45.781 11.6 332 7.2 101740 99
2005-01-17 09:07:08 51°19.911 2°45.781 12.8 326 7.2 101740 99
2005-01-17 09:07:16 51°19.913 2°45.781 11.8 326 7.3 101740 99
2005-01-17 09:07:21 51°19.914 2°45.78 11.2 328 7.3 101740 99
2005-01-17 09:07:25 51°19.915 2°45.779 11.1 318 7.3 101740 99
2005-01-17 09:07:31 51°19.917 2°45.778 11.8 329 7.3 101740 99
2005-01-17 09:07:36 51°19.918 2°45.777 11.3 321 7.3 101740 99
2005-01-17 09:07:41 51°19.919 2°45.776 12.4 317 7.3 101740 99
2005-01-17 09:07:44 51°19.92 2°45.775 12.2 330 7.3 101730 99
2005-01-17 09:07:48 51°19.92 2°45.774 11.3 320 7.3 101730 99
2005-01-17 09:07:56 51°19.922 2°45.771 12 323 7.3 101740 99
2005-01-17 09:08:00 51°19.923 2°45.77 11 320 7.3 101740 99
2005-01-17 09:08:06 51°19.925 2°45.768 10.4 317 7.3 101740 99
2005-01-17 09:08:11 51°19.926 2°45.766 10.8 317 7.3 101740 99
2005-01-17 09:08:16 51°19.927 2°45.765 10.2 320 7.3 101740 99
2005-01-17 09:08:21 51°19.929 2°45.764 10.8 321 7.3 101740 99
2005-01-17 09:08:26 51°19.93 2°45.763 12.3 318 7.3 101740 99
2005-01-17 09:08:30 51°19.931 2°45.762 12.2 314 7.3 101740 99
2005-01-17 09:08:36 51°19.933 2°45.76 12.6 315 7.3 101740 99
2005-01-17 09:08:40 51°19.933 2°45.758 11.2 43 7.3 101740 99
2005-01-17 09:08:46 51°19.935 2°45.756 12.7 317 7.3 101740 99
2005-01-17 09:08:51 51°19.936 2°45.755 12.4 317 7.3 101740 99
2005-01-17 09:08:56 51°19.938 2°45.753 11.9 313 7.3 101740 99
2005-01-17 09:09:01 51°19.939 2°45.751 13.4 312 7.3 101740 99
2005-01-17 09:09:06 51°19.94 2°45.749 12.3 310 7.3 101740 99
2005-01-17 09:09:11 51°19.941 2°45.748 12.3 306 7.3 101740 99
2005-01-17 09:09:16 51°19.943 2°45.747 11.2 229 7.3 101730 99
2005-01-17 09:09:20 51°19.944 2°45.746 12.7 299 7.3 101730 99
2005-01-17 09:09:26 51°19.947 2°45.745 12 306 7.3 101740 99
2005-01-17 09:09:30 51°19.948 2°45.744 11.5 305 7.3 101740 99
2005-01-17 09:09:36 51°19.95 2°45.743 11.2 295 7.3 101740 99
2005-01-17 09:09:41 51°19.952 2°45.742 12.4 296 7.3 101740 99
2005-01-17 09:09:45 51°19.953 2°45.742 11.4 301 7.3 101740 99
2005-01-17 09:09:50 51°19.955 2°45.741 13.5 303 7.3 101740 99
2005-01-17 09:09:56 51°19.958 2°45.74 12.3 301 7.3 101740 99
2005-01-17 09:10:01 51°19.959 2°45.739 12.2 304 7.3 101740 99
2005-01-17 09:10:06 51°19.961 2°45.736 11.5 298 7.3 101740 99
2005-01-17 09:10:11 51°19.963 2°45.733 11.4 297 7.3 101740 99
2005-01-17 09:10:16 51°19.964 2°45.729 12 307 7.3 101740 99
2005-01-17 09:10:21 51°19.965 2°45.724 10.9 307 7.3 101740 99
2005-01-17 09:10:26 51°19.966 2°45.719 12.9 315 7.3 101730 99
2005-01-17 09:10:31 51°19.966 2°45.713 13.7 316 7.3 101730 99
2005-01-17 09:10:36 51°19.966 2°45.707 13.1 324 7.3 101730 99
2005-01-17 09:10:41 51°19.965 2°45.702 13.5 328 7.3 101730 99
2005-01-17 09:10:46 51°19.964 2°45.696 13.6 336 7.3 101740 99
2005-01-17 09:10:51 51°19.963 2°45.69 14.4 346 7.3 101740 99
2005-01-17 09:10:56 51°19.961 2°45.685 13.2 344 7.3 101730 99
2005-01-17 09:11:00 51°19.958 2°45.681 13.6 349 7.3 101730 99
2005-01-17 09:11:06 51°19.954 2°45.676 10.9 358 7.3 101730 99
2005-01-17 09:11:08 51°19.953 2°45.674 13.4 6 7.3 101730 99
2005-01-17 09:11:16 51°19.947 2°45.67 14.1 5 7.3 101730 99
2005-01-17 09:11:21 51°19.943 2°45.669 13.8 16 7.3 101730 99
2005-01-17 09:11:26 51°19.939 2°45.668 13.2 25 7.3 101730 99
2005-01-17 09:11:30 51°19.935 2°45.669 13.6 34 7.3 101730 99
2005-01-17 09:11:36 51°19.93 2°45.671 15 42 7.3 101740 99
2005-01-17 09:11:41 51°19.927 2°45.674 13.1 52 7.3 101740 99
2005-01-17 09:11:46 51°19.923 2°45.678 11.7 56 7.3 101740 99
2005-01-17 09:11:52 51°19.919 2°45.685 11.7 68 7.3 101740 99
2005-01-17 09:11:56 51°19.917 2°45.69 10.3 71 7.3 101730 99
2005-01-17 09:12:01 51°19.914 2°45.697 11 79 7.3 101730 99
2005-01-17 09:12:06 51°19.912 2°45.706 11.8 82 7.3 101720 99
2005-01-17 09:12:10 51°19.911 2°45.713 10.5 94 7.3 101720 99
2005-01-17 09:12:16 51°19.911 2°45.723 11 105 7.3 101720 99
2005-01-17 09:12:21 51°19.911 2°45.733 11.2 118 7.3 101720 99
2005-01-17 09:12:26 51°19.912 2°45.743 11.5 120 7.3 101710 99
2005-01-17 09:12:31 51°19.914 2°45.753 9.7 116 7.3 101710 99
2005-01-17 09:12:36 51°19.916 2°45.762 11.6 123 7.3 101720 99
2005-01-17 09:12:40 51°19.917 2°45.768 11.3 129 7.3 101720 99
2005-01-17 09:12:46 51°19.92 2°45.777 11.2 126 7.3 101730 99
2005-01-17 09:12:51 51°19.922 2°45.783 11.3 125 7.3 101730 99
2005-01-17 09:12:56 51°19.923 2°45.789 11.5 118 7.3 101740 99
2005-01-17 09:13:00 51°19.924 2°45.792 10.4 112 7.3 101740 99
2005-01-17 09:13:06 51°19.925 2°45.797 10.6 113 7.3 101750 99
2005-01-17 09:13:11 51°19.926 2°45.799 10 116 7.3 101750 99
2005-01-17 09:13:16 51°19.927 2°45.8 10.1 111 7.3 101730 99
2005-01-17 09:13:21 51°19.929 2°45.802 10.7 107 7.3 101730 99
2005-01-17 09:13:26 51°19.93 2°45.803 11.6 104 7.3 101730 99
2005-01-17 09:13:30 51°19.931 2°45.804 11.3 102 7.3 101730 99
2005-01-17 09:13:36 51°19.932 2°45.805 9.8 107 7.3 101730 99
2005-01-17 09:13:41 51°19.934 2°45.806 10.4 103 7.3 101730 99
2005-01-17 09:13:46 51°19.935 2°45.807 10.6 100 7.3 101740 99
2005-01-17 09:13:51 51°19.936 2°45.808 10.7 97 7.3 101740 99
2005-01-17 09:13:56 51°19.937 2°45.809 11.6 100 7.3 101750 99
2005-01-17 09:14:00 51°19.938 2°45.81 11 105 7.3 101750 99
2005-01-17 09:14:06 51°19.939 2°45.811 11.8 102 7.3 101750 99
2005-01-17 09:14:11 51°19.94 2°45.813 12.1 93 7.3 101750 99
2005-01-17 09:14:16 51°19.941 2°45.814 11.7 97 7.3 101750 99
2005-01-17 09:14:21 51°19.943 2°45.815 11.8 98 7.3 101750 99
2005-01-17 09:14:26 51°19.944 2°45.816 11 95 7.3 101750 99
2005-01-17 09:14:32 51°19.945 2°45.818 12.3 101 7.3 101750 99
2005-01-17 09:14:36 51°19.946 2°45.819 11.8 98 7.3 101750 99
2005-01-17 09:14:41 51°19.947 2°45.821 11.5 94 7.3 101750 99
2005-01-17 09:14:46 51°19.948 2°45.822 10.4 100 7.3 101750 99
2005-01-17 09:14:51 51°19.949 2°45.824 11.1 96 7.3 101750 99
2005-01-17 09:14:56 51°19.95 2°45.825 11.4 94 7.3 101750 99
2005-01-17 09:15:00 51°19.951 2°45.826 11.8 96 7.3 101750 99
2005-01-17 09:15:05 51°19.952 2°45.828 10.6 100 7.3 101740 99
2005-01-17 09:15:11 51°19.953 2°45.829 10 97 7.3 101740 99
2005-01-17 09:15:16 51°19.954 2°45.831 11.3 89 7.3 101750 99
2005-01-17 09:15:21 51°19.956 2°45.833 11 85 7.3 101750 99
2005-01-17 09:15:26 51°19.957 2°45.834 4.4 88 7.3 101750 99
2005-01-17 09:15:31 51°19.958 2°45.834 9.7 97 7.3 101750 99
2005-01-17 09:15:36 51°19.959 2°45.836 12.3 88 7.3 101740 99
2005-01-17 09:15:40 51°19.96 2°45.837 12.7 91 7.3 101740 99
2005-01-17 09:15:46 51°19.96 2°45.84 12.7 87 7.3 101740 99
2005-01-17 09:15:52 51°19.962 2°45.841 11.7 86 7.3 101740 99
2005-01-17 09:15:56 51°19.963 2°45.842 12 85 7.3 101750 99
2005-01-17 09:16:01 51°19.964 2°45.843 13 89 7.3 101750 99
2005-01-17 09:16:06 51°19.964 2°45.845 13.3 89 7.3 101740 99
2005-01-17 09:16:08 51°19.965 2°45.846 10.6 84 7.3 101740 99
2005-01-17 09:16:16 51°19.966 2°45.849 10.7 82 7.3 101740 99
2005-01-17 09:16:21 51°19.967 2°45.85 10.8 92 7.3 101740 99
2005-01-17 09:16:26 51°19.968 2°45.852 11.4 80 7.3 101740 99
2005-01-17 09:16:32 51°19.969 2°45.854 11 88 7.3 101740 99
2005-01-17 09:16:36 51°19.97 2°45.855 12.1 85 7.3 101740 99
2005-01-17 09:16:41 51°19.971 2°45.857 13.3 89 7.3 101740 99
2005-01-17 09:16:46 51°19.972 2°45.858 11.2 85 7.3 101740 99
2005-01-17 09:16:50 51°19.973 2°45.859 10.9 83 7.3 101740 99
2005-01-17 09:16:56 51°19.974 2°45.861 11.4 81 7.3 101740 99
2005-01-17 09:17:01 51°19.975 2°45.863 10.9 81 7.3 101740 99
2005-01-17 09:17:06 51°19.976 2°45.864 12.6 79 7.3 101740 99
2005-01-17 09:17:10 51°19.976 2°45.865 12.4 81 7.3 101740 99
2005-01-17 09:17:16 51°19.978 2°45.867 11.2 81 7.3 101740 99
2005-01-17 09:17:20 51°19.978 2°45.868 10.4 81 7.3 101740 99
2005-01-17 09:17:26 51°19.98 2°45.869 11 81 7.3 101740 99
2005-01-17 09:17:31 51°19.981 2°45.87 10.6 86 7.3 101740 99
2005-01-17 09:17:36 51°19.982 2°45.872 11.7 83 7.3 101730 99
2005-01-17 09:17:41 51°19.983 2°45.873 10.2 90 7.3 101730 99
2005-01-17 09:17:44 51°19.984 2°45.873 9.8 84 7.3 101740 99
2005-01-17 09:17:48 51°19.985 2°45.875 10.7 83 7.3 101740 99
2005-01-17 09:17:56 51°19.986 2°45.877 10.5 82 7.3 101740 99
2005-01-17 09:18:00 51°19.987 2°45.878 10.9 82 7.3 101740 99
2005-01-17 09:18:06 51°19.988 2°45.879 11.3 82 7.3 101740 99
2005-01-17 09:18:11 51°19.989 2°45.88 10.6 79 7.3 101740 99
2005-01-17 09:18:16 51°19.99 2°45.882 10.7 83 7.3 101740 99
2005-01-17 09:18:21 51°19.992 2°45.882 11.6 85 7.3 101740 99
2005-01-17 09:18:26 51°19.993 2°45.884 9.2 77 7.3 101740 99
2005-01-17 09:18:31 51°19.994 2°45.886 13.1 86 7.3 101740 99
2005-01-17 09:18:36 51°19.995 2°45.887 11.7 78 7.3 101740 99
2005-01-17 09:18:41 51°19.996 2°45.889 10.1 76 7.3 101740 99
2005-01-17 09:18:46 51°19.997 2°45.89 10.3 74 7.3 101740 99
2005-01-17 09:18:50 51°19.998 2°45.891 10.1 77 7.3 101740 99
2005-01-17 09:18:56 51°19.999 2°45.893 13.3 88 7.3 101740 99
2005-01-17 09:19:01 51°20.001 2°45.894 10.1 93 7.3 101740 99
2005-01-17 09:19:06 51°20.002 2°45.896 11 82 7.3 101730 99
2005-01-17 09:19:11 51°20.003 2°45.897 12.6 88 7.3 101730 99
2005-01-17 09:19:16 51°20.004 2°45.899 12.6 82 7.3 101740 99
2005-01-17 09:19:21 51°20.005 2°45.9 11.1 77 7.3 101740 99
2005-01-17 09:19:26 51°20.005 2°45.902 11.3 80 7.3 101740 99
2005-01-17 09:19:32 51°20.006 2°45.905 10.9 81 7.3 101740 99
2005-01-17 09:19:36 51°20.007 2°45.907 11.9 84 7.3 101740 99
2005-01-17 09:19:41 51°20.007 2°45.909 8.5 72 7.3 101740 99
2005-01-17 09:19:46 51°20.007 2°45.912 9.5 65 7.3 101730 99
2005-01-17 09:19:51 51°20.006 2°45.915 11.6 65 7.3 101730 99
2005-01-17 09:19:56 51°20.006 2°45.918 12.1 60 7.3 101730 99
2005-01-17 09:20:00 51°20.005 2°45.92 11.8 51 7.3 101730 99
2005-01-17 09:20:06 51°20.003 2°45.924 12.1 47 7.3 101740 99
2005-01-17 09:20:09 51°20.002 2°45.926 12.4 46 7.3 101740 99
2005-01-17 09:20:16 51°19.999 2°45.93 10.9 41 7.3 101730 99
2005-01-17 09:20:21 51°19.997 2°45.931 10.8 38 7.3 101730 99
2005-01-17 09:20:26 51°19.995 2°45.932 12.4 35 7.3 101730 99
2005-01-17 09:20:31 51°19.992 2°45.934 11.1 33 7.3 101730 99
2005-01-17 09:20:36 51°19.99 2°45.935 11.8 34 7.3 101730 99
2005-01-17 09:20:40 51°19.988 2°45.936 12.3 27 7.3 101730 99
2005-01-17 09:20:46 51°19.986 2°45.937 11 35 7.3 101730 99
2005-01-17 09:20:52 51°19.985 2°45.938 12.1 24 7.3 101730 99
2005-01-17 09:20:56 51°19.985 2°45.939 10.7 28 7.3 101730 99
2005-01-17 09:21:01 51°19.985 2°45.94 11.3 33 7.3 101730 99
2005-01-17 09:21:06 51°19.984 2°45.941 10.8 31 7.3 101740 99
2005-01-17 09:21:11 51°19.984 2°45.942 12.5 27 7.3 101740 99
2005-01-17 09:21:16 51°19.984 2°45.943 12.4 26 7.3 101740 99
2005-01-17 09:21:21 51°19.984 2°45.943 12.6 34 7.3 101740 99
2005-01-17 09:21:26 51°19.985 2°45.944 11 37 7.3 101730 99
2005-01-17 09:21:32 51°19.985 2°45.946 12.4 34 7.3 101730 99
2005-01-17 09:21:36 51°19.986 2°45.946 12.5 39 7.3 101750 99
2005-01-17 09:21:41 51°19.986 2°45.947 12.3 35 7.3 101750 99
2005-01-17 09:21:46 51°19.987 2°45.948 12.6 39 7.3 101740 99
2005-01-17 09:21:49 51°19.987 2°45.949 12.6 45 7.3 101740 99
2005-01-17 09:21:56 51°19.989 2°45.951 11.4 43 7.3 101740 99
2005-01-17 09:22:01 51°19.989 2°45.952 11.4 44 7.3 101740 99
2005-01-17 09:22:06 51°19.99 2°45.953 11.4 42 7.3 101740 99
2005-01-17 09:22:10 51°19.991 2°45.954 11.3 58 7.3 101740 99
2005-01-17 09:22:16 51°19.993 2°45.955 12.7 53 7.3 101740 99
2005-01-17 09:22:21 51°19.994 2°45.956 12.3 58 7.3 101740 99
2005-01-17 09:22:26 51°19.995 2°45.957 10.6 70 7.3 101740 99
2005-01-17 09:22:31 51°19.996 2°45.958 9.9 67 7.3 101740 99
2005-01-17 09:22:36 51°19.997 2°45.959 10.1 70 7.3 101730 99
2005-01-17 09:22:41 51°19.999 2°45.961 10.3 80 7.3 101730 99
2005-01-17 09:22:46 51°20 2°45.961 10.6 82 7.3 101730 99
2005-01-17 09:22:51 51°20.001 2°45.963 9.7 81 7.3 101730 99
2005-01-17 09:22:56 51°20.003 2°45.963 10.8 80 7.3 101730 99
2005-01-17 09:23:01 51°20.004 2°45.965 10.2 84 7.3 101730 99
2005-01-17 09:23:06 51°20.005 2°45.966 10.7 81 7.3 101730 99
2005-01-17 09:23:11 51°20.007 2°45.967 11 90 7.3 101730 99
2005-01-17 09:23:16 51°20.008 2°45.968 10.6 90 7.3 101740 99
2005-01-17 09:23:21 51°20.009 2°45.969 10.4 102 7.3 101740 99
2005-01-17 09:23:26 51°20.011 2°45.969 9.2 106 7.3 101730 99
2005-01-17 09:23:31 51°20.012 2°45.971 12.4 101 7.3 101730 99
2005-01-17 09:23:36 51°20.013 2°45.972 12.8 91 7.3 101730 99
2005-01-17 09:23:41 51°20.015 2°45.974 13.8 98 7.3 101730 99
2005-01-17 09:23:46 51°20.016 2°45.975 13.1 105 7.3 101740 99
2005-01-17 09:23:51 51°20.018 2°45.976 11.5 106 7.3 101740 99
2005-01-17 09:23:56 51°20.019 2°45.977 11.1 99 7.3 101730 99
2005-01-17 09:24:00 51°20.02 2°45.979 10.6 108 7.3 101730 99
2005-01-17 09:24:06 51°20.022 2°45.98 11.4 107 7.3 101720 99
2005-01-17 09:24:08 51°20.022 2°45.98 10.2 107 7.3 101720 99
2005-01-17 09:24:16 51°20.024 2°45.983 10.1 102 7.3 101730 99
2005-01-17 09:24:21 51°20.026 2°45.984 10.7 100 7.3 101730 99
2005-01-17 09:24:26 51°20.027 2°45.985 11.9 102 7.3 101730 99
2005-01-17 09:24:32 51°20.028 2°45.987 11.8 107 7.3 101730 99
2005-01-17 09:24:36 51°20.029 2°45.988 12 98 7.3 101730 99
2005-01-17 09:24:41 51°20.031 2°45.989 12.4 103 7.3 101730 99
2005-01-17 09:24:46 51°20.032 2°45.991 11 100 7.4 101730 99
2005-01-17 09:24:49 51°20.032 2°45.991 10.2 104 7.4 101730 99
2005-01-17 09:24:56 51°20.034 2°45.994 11.3 98 7.4 101730 99
2005-01-17 09:25:00 51°20.035 2°45.995 12.4 101 7.4 101730 99
2005-01-17 09:25:06 51°20.036 2°45.996 13.5 90 7.3 101730 99
2005-01-17 09:25:10 51°20.037 2°45.998 11.7 94 7.3 101730 99
2005-01-17 09:25:16 51°20.039 2°45.999 11.1 104 7.3 101730 99
2005-01-17 09:25:21 51°20.04 2°46.001 12 100 7.3 101730 99
2005-01-17 09:25:26 51°20.041 2°46.002 11 102 7.3 101730 99
2005-01-17 09:25:30 51°20.041 2°46.003 11.1 100 7.3 101730 99
2005-01-17 09:25:36 51°20.043 2°46.005 10.9 99 7.3 101730 99
2005-01-17 09:25:41 51°20.044 2°46.007 13 93 7.3 101730 99
2005-01-17 09:25:46 51°20.044 2°46.01 13.9 86 7.3 101740 99
2005-01-17 09:25:51 51°20.044 2°46.015 10.6 76 7.3 101740 99
2005-01-17 09:25:56 51°20.043 2°46.02 8.9 77 7.3 101730 99
2005-01-17 09:26:00 51°20.041 2°46.025 10.7 70 7.3 101730 99
2005-01-17 09:26:06 51°20.038 2°46.033 10.9 68 7.3 101720 99
2005-01-17 09:26:10 51°20.035 2°46.038 11.9 58 7.3 101720 99
2005-01-17 09:26:16 51°20.029 2°46.047 12.3 60 7.3 101710 99
2005-01-17 09:26:20 51°20.025 2°46.053 14.2 53 7.3 101710 99
2005-01-17 09:26:26 51°20.018 2°46.061 15.2 50 7.3 101700 99
2005-01-17 09:26:32 51°20.009 2°46.069 15.6 41 7.3 101700 99
2005-01-17 09:26:36 51°20.004 2°46.072 15.3 37 7.3 101720 99
2005-01-17 09:26:40 51°19.998 2°46.075 14.6 26 7.3 101720 99
2005-01-17 09:26:46 51°19.988 2°46.077 16.1 25 7.3 101730 99
2005-01-17 09:26:51 51°19.98 2°46.076 14.3 12 7.3 101730 99
2005-01-17 09:26:56 51°19.973 2°46.073 15.5 7 7.3 101720 99
2005-01-17 09:27:01 51°19.965 2°46.068 14.1 1 7.3 101720 99
2005-01-17 09:27:05 51°19.959 2°46.064 14.7 4 7.3 101710 99
2005-01-17 09:27:09 51°19.953 2°46.059 15.7 353 7.3 101710 99
2005-01-17 09:27:16 51°19.942 2°46.047 15.8 356 7.3 101710 99
2005-01-17 09:27:21 51°19.935 2°46.039 16.3 356 7.3 101710 99
2005-01-17 09:27:26 51°19.926 2°46.029 16.2 350 7.3 101720 99
2005-01-17 09:27:32 51°19.916 2°46.016 16.7 352 7.3 101720 99
2005-01-17 09:27:36 51°19.908 2°46.005 17.4 350 7.3 101720 99
2005-01-17 09:27:41 51°19.898 2°45.991 16.4 351 7.3 101720 99
2005-01-17 09:27:46 51°19.889 2°45.975 18.2 351 7.3 101700 99
2005-01-17 09:27:49 51°19.882 2°45.966 16.9 350 7.3 101700 99
2005-01-17 09:27:56 51°19.866 2°45.943 17.6 353 7.3 101690 99
2005-01-17 09:28:00 51°19.856 2°45.93 16.9 355 7.3 101690 99
2005-01-17 09:28:06 51°19.841 2°45.91 18.9 352 7.3 101680 99
2005-01-17 09:28:10 51°19.83 2°45.896 18.4 356 7.3 101680 99
2005-01-17 09:28:16 51°19.813 2°45.876 18.1 356 7.3 101670 99
2005-01-17 09:28:21 51°19.8 2°45.858 17.4 358 7.3 101670 99
2005-01-17 09:28:26 51°19.786 2°45.841 17.1 353 7.3 101680 99
2005-01-17 09:28:31 51°19.771 2°45.823 18.3   7.3 101680 99
2005-01-17 09:28:36 51°19.757 2°45.807 19.1 356 7.3 101670 99
2005-01-17 09:28:40 51°19.746 2°45.792 17.5 350 7.3 101670 99
2005-01-17 09:28:46 51°19.73 2°45.769 18.1 350 7.4 101670 99
2005-01-17 09:28:50 51°19.719 2°45.753 18.2 350 7.4 101670 99
2005-01-17 09:28:56 51°19.704 2°45.728 18.5 351 7.3 101680 99
2005-01-17 09:29:01 51°19.692 2°45.708 18.5 354 7.3 101680 99
2005-01-17 09:29:06 51°19.678 2°45.687 19.8 343 7.4 101670 99
2005-01-17 09:29:11 51°19.664 2°45.668 19.8 353 7.4 101670 99
2005-01-17 09:29:16 51°19.651 2°45.65 20.1 357 7.4 101670 99
2005-01-17 09:29:21 51°19.637 2°45.632 19.6 351 7.4 101670 99
2005-01-17 09:29:26 51°19.623 2°45.612 19.5 354 7.4 101670 99
2005-01-17 09:29:30 51°19.612 2°45.597 18.6 349 7.4 101670 99
2005-01-17 09:29:36 51°19.595 2°45.575 19.5 356 7.4 101670 99
2005-01-17 09:29:41 51°19.582 2°45.557 19.6 356 7.4 101670 99
2005-01-17 09:29:46 51°19.567 2°45.538 18.5 358 7.4 101660 99
2005-01-17 09:29:51 51°19.554 2°45.519 19.2 355 7.4 101660 99
2005-01-17 09:29:56 51°19.539 2°45.501 18.5 351 7.4 101660 99
2005-01-17 09:30:01 51°19.526 2°45.482 17 353 7.4 101660 99
2005-01-17 09:30:06 51°19.512 2°45.464 19 355 7.4 101670 99
2005-01-17 09:30:11 51°19.497 2°45.445 19.4 355 7.4 101670 99
2005-01-17 09:30:16 51°19.484 2°45.426 18.8 358 7.4 101670 99
2005-01-17 09:30:21 51°19.469 2°45.407 17.4 353 7.4 101670 99
2005-01-17 09:30:26 51°19.456 2°45.389 18.3 352 7.4 101670 99
2005-01-17 09:30:31 51°19.442 2°45.37 18.4 357 7.4 101670 99
2005-01-17 09:30:36 51°19.428 2°45.352 18.9 356 7.4 101670 99
2005-01-17 09:30:40 51°19.417 2°45.336 18.4 355 7.4 101670 99
2005-01-17 09:30:46 51°19.401 2°45.315 18.1 356 7.4 101670 99
2005-01-17 09:30:50 51°19.389 2°45.3 19.1 355 7.4 101670 99
2005-01-17 09:30:56 51°19.373 2°45.277 17.5 360 7.4 101670 99
2005-01-17 09:31:01 51°19.359 2°45.258 18.2 354 7.4 101670 99
2005-01-17 09:31:05 51°19.348 2°45.243 18.7 352 7.4 101680 99
2005-01-17 09:31:11 51°19.332 2°45.22 16.2 355 7.4 101680 99
2005-01-17 09:31:16 51°19.318 2°45.203 16.4 357 7.4 101680 99
2005-01-17 09:31:21 51°19.304 2°45.183 19.2 358 7.4 101680 99
2005-01-17 09:31:26 51°19.29 2°45.164 17.7 1 7.4 101670 99
2005-01-17 09:31:31 51°19.276 2°45.146 17.4 356 7.4 101670 99
2005-01-17 09:31:36 51°19.262 2°45.126 18.3 358 7.4 101670 99
2005-01-17 09:31:41 51°19.248 2°45.108 17.7 356 7.4 101670 99
2005-01-17 09:31:46 51°19.234 2°45.088 17.4 358 7.4 101670 99
2005-01-17 09:31:51 51°19.221 2°45.07 19.4 353 7.4 101670 99
2005-01-17 09:31:56 51°19.207 2°45.05 20.3 356 7.4 101670 99
2005-01-17 09:32:01 51°19.194 2°45.031 19.3 353 7.4 101670 99
2005-01-17 09:32:06 51°19.18 2°45.013 19.7 352 7.4 101670 99
2005-01-17 09:32:12 51°19.164 2°44.989 16.9 354 7.4 101670 99
2005-01-17 09:32:16 51°19.152 2°44.974 19 354 7.4 101670 99
2005-01-17 09:32:21 51°19.139 2°44.954 18.6 352 7.4 101670 99
2005-01-17 09:32:26 51°19.125 2°44.936 17.3 348 7.4 101660 98
2005-01-17 09:32:31 51°19.111 2°44.916 19.3 351 7.4 101660 98
2005-01-17 09:32:36 51°19.098 2°44.897 18.7 356 7.4 101660 98
2005-01-17 09:32:40 51°19.086 2°44.881 19.3 355 7.4 101660 98
2005-01-17 09:32:46 51°19.071 2°44.858 17.2 350 7.4 101670 98
2005-01-17 09:32:50 51°19.059 2°44.842 18.6 353 7.4 101670 98
2005-01-17 09:32:56 51°19.043 2°44.819 17.8 350 7.4 101660 98
2005-01-17 09:33:00 51°19.032 2°44.804 18.6 354 7.4 101660 98
2005-01-17 09:33:06 51°19.015 2°44.78 19.5 354 7.4 101660 98
2005-01-17 09:33:09 51°19.007 2°44.768 18.9 353 7.4 101660 98
2005-01-17 09:33:16 51°18.988 2°44.742 20.1 354 7.4 101670 98
2005-01-17 09:33:20 51°18.978 2°44.727 20.3 352 7.4 101670 98
2005-01-17 09:33:26 51°18.961 2°44.704 19.1 353 7.4 101660 98
2005-01-17 09:33:31 51°18.947 2°44.684 18.9 353 7.4 101660 98
2005-01-17 09:33:36 51°18.933 2°44.664 18.5 355 7.4 101660 98
2005-01-17 09:33:41 51°18.92 2°44.645 16.7 356 7.4 101660 98
2005-01-17 09:33:46 51°18.906 2°44.625 16.9 354 7.4 101660 98
2005-01-17 09:33:50 51°18.895 2°44.609 21.9 351 7.4 101660 98
2005-01-17 09:33:56 51°18.879 2°44.586 20.2 349 7.4 101660 98
2005-01-17 09:34:01 51°18.865 2°44.567 19.8 353 7.4 101660 98
2005-01-17 09:34:06 51°18.852 2°44.547 19.5 353 7.4 101670 98
2005-01-17 09:34:08 51°18.846 2°44.539 19 351 7.4 101670 98
2005-01-17 09:34:16 51°18.825 2°44.508 18 354 7.4 101670 98
2005-01-17 09:34:21 51°18.811 2°44.488 18.5 355 7.4 101670 98
2005-01-17 09:34:26 51°18.799 2°44.469 17.9 352 7.4 101660 98
2005-01-17 09:34:30 51°18.79 2°44.455 16.4 354 7.4 101660 98
2005-01-17 09:34:36 51°18.776 2°44.435 17.1 355 7.4 101670 98
2005-01-17 09:34:41 51°18.765 2°44.419 16.2 354 7.4 101670 98